AGROMETEOROLOŠKI PORTAL

vinorodna pokrajina

Temelj dobrega kmetovanja

Pregled podatkov za lokacijo Črnomelj, meteorološka postaja 859096

Pregled senzorjev na lokaciji

ID Ime Zadnja
vrednost
Datum in čas
meritve
(lokalni čas)
Tip
senzorja
4082 Omočenost lista (1,5 m) (U) 0 U 1.2.2023 13:30 A730WET
5062 Padavine (mm) 0 mm 1.2.2023 13:30 Generic 0.2 mm
4081 Relativna zračna vlaga (2 m) (%RH) 55 %RH 1.2.2023 13:30 50YA
4080 Temperatura (2 m) (°C) 10,1 °C 1.2.2023 13:30 50YA

Pregled podatkov zadnjih 24 ur

Zap.
št.
Datum in čas
(lokalni čas)
Črnomelj
Omočenost
lista
(1,5
m)
Padavine Relativna
zračna
vlaga
(2
m)
Temperatura
(2
m)
1 1.2.2023 13:30 0 0 55 10,1
2 1.2.2023 13:00 0 0 56,1 9,8
3 1.2.2023 12:30 0 0 55,2 9,5
4 1.2.2023 12:00 0 0 53,3 8,1
5 1.2.2023 11:30 0 0 55,8 6,9
6 1.2.2023 11:00 0 0 56 6,3
7 1.2.2023 10:30 0 0 58,9 5
8 1.2.2023 10:00 0 0 64,1 3,2
9 1.2.2023 09:30 0 0 62 3,6
10 1.2.2023 09:00 0 0 62,3 3,3
11 1.2.2023 08:30 0 0 63,9 2,7
12 1.2.2023 08:00 0 0 66,2 1,1
13 1.2.2023 07:30 0 0 68,6 0,3
14 1.2.2023 07:00 0 0 67,6 0,3
15 1.2.2023 06:30 0 0 68,1 0,3
16 1.2.2023 06:00 0 0 71,4 -0,2
17 1.2.2023 05:30 0 0 71,3 0
18 1.2.2023 05:00 0 0 69,9 0,4
19 1.2.2023 04:30 0 0 64,6 1,5
20 1.2.2023 04:00 0 0 64 1,6
21 1.2.2023 03:30 0 0 65 1,2
22 1.2.2023 03:00 0 0 65 1,4
23 1.2.2023 02:30 0 0 63,9 1,7
24 1.2.2023 02:00 0 0 61,8 2,1
25 1.2.2023 01:30 0 0 62,1 2
26 1.2.2023 01:00 0 0 61,3 2,4
27 1.2.2023 00:30 0 0 55,1 4,1
28 1.2.2023 00:00 0 0 49,7 5,2
29 31.1.2023 23:30 0 0 51,2 4,8
30 31.1.2023 23:00 0 0 52,9 4
31 31.1.2023 22:30 0 0 53,4 3,9
32 31.1.2023 22:00 0 0 54,4 3,7
33 31.1.2023 21:30 0 0 50,1 4,7
34 31.1.2023 21:00 0 0 49 5,1
35 31.1.2023 20:30 0 0 52,4 5,1
36 31.1.2023 20:00 0 0 54,5 4,7
37 31.1.2023 19:30 0 0 57,6 4,2
38 31.1.2023 19:00 0 0 54,7 5,2
39 31.1.2023 18:30 0 0 59,9 4,8
40 31.1.2023 18:00 0 0 56,7 5,3
41 31.1.2023 17:30 0 0 55,7 5,3
42 31.1.2023 17:00 0 0 52,5 5,8
43 31.1.2023 16:30 0 0 43,3 7,9
44 31.1.2023 16:00 0 0 40,4 9
45 31.1.2023 15:30 0 0 36,8 9,9
46 31.1.2023 15:00 0 0 38,1 10
47 31.1.2023 14:30 0 0 36,1 10,5
48 31.1.2023 14:00 0 0 34,3 10